Idleyld Park, Oregon
Current Conditions -  °F | °C
As of 1:53 PM on Wednesday 22 Oct 2014 (Local Time) from KRBG Reporting Station
Light Rain Light Rain  
Wind Chill: 68°   Ceiling: 6000
Heat Index: 68°   Visibility: 10mi
Dew Point: 50°   Wind: 15mph
Humidity: 52%   Direction: 160°SSE
Pressure: 29.79"   Gusts: 33mph
Location:  43.32°N, 123.03°W
Report Text: KRBG 222053Z AUTO 16013G29KT 10SM -RA FEW047 OVC060 20/10 A2979 RMK AO2 PK WND 16029/2048 RAE1958B15 SLP086 P0000 60000 T02000100 58024
Loading
Personal Weather Stations






























Interactive Weather Map
Tropical Storm Tracking
New forecast layout! Learn more

10-Day Weather Forecast

Advertisements
Track Severe Weather on mobile